createdAt,value
2018-07-28T00:02:15.505Z,7.60
2018-07-28T00:04:42.869Z,7.70
2018-07-28T00:07:10.361Z,7.43
2018-07-28T00:09:37.685Z,7.17
2018-07-28T00:12:05.162Z,8.30
2018-07-28T00:14:32.520Z,7.13
2018-07-28T00:16:59.883Z,8.13
2018-07-28T00:19:27.258Z,7.37
2018-07-28T00:21:54.603Z,7.53
2018-07-28T00:24:21.948Z,8.10
2018-07-28T00:26:49.254Z,7.40
2018-07-28T00:29:16.635Z,6.70
2018-07-28T00:31:43.986Z,8.80
2018-07-28T00:34:11.334Z,8.93
2018-07-28T00:36:38.644Z,9.10
2018-07-28T00:39:08.165Z,8.10
2018-07-28T00:41:35.563Z,8.50
2018-07-28T00:44:03.075Z,7.10
2018-07-28T00:46:30.405Z,8.13
2018-07-28T00:48:57.744Z,7.97
2018-07-28T00:51:25.081Z,8.50
2018-07-28T00:53:52.397Z,7.60
2018-07-28T00:56:19.853Z,7.80
2018-07-28T00:58:47.134Z,7.43
2018-07-28T01:01:14.542Z,6.87
2018-07-28T01:03:42.000Z,7.83
2018-07-28T01:06:09.335Z,7.53
2018-07-28T01:08:36.660Z,8.53
2018-07-28T01:11:04.034Z,7.20
2018-07-28T01:13:31.402Z,7.60
2018-07-28T01:15:58.793Z,7.97
2018-07-28T01:18:26.137Z,7.80
2018-07-28T01:20:53.465Z,7.77
2018-07-28T01:23:20.875Z,6.83
2018-07-28T01:25:48.208Z,7.90
2018-07-28T01:28:15.524Z,8.03
2018-07-28T01:30:43.047Z,7.30
2018-07-28T01:33:10.397Z,7.67
2018-07-28T01:35:37.715Z,7.67
2018-07-28T01:38:05.053Z,7.90
2018-07-28T01:40:32.386Z,8.00
2018-07-28T01:42:59.717Z,7.77
2018-07-28T01:45:27.037Z,8.30
2018-07-28T01:47:54.298Z,7.70
2018-07-28T01:50:21.556Z,7.73
2018-07-28T01:52:48.812Z,7.43
2018-07-28T01:55:16.106Z,8.13
2018-07-28T01:57:43.364Z,8.23
2018-07-28T02:00:10.601Z,7.77
2018-07-28T02:02:37.857Z,7.40
2018-07-28T02:05:06.316Z,6.73
2018-07-28T02:07:33.593Z,7.90
2018-07-28T02:10:00.943Z,8.67
2018-07-28T02:12:28.228Z,8.37
2018-07-28T02:14:55.484Z,7.47
2018-07-28T02:17:22.774Z,6.77
2018-07-28T02:19:50.012Z,8.43
2018-07-28T02:22:17.268Z,7.90
2018-07-28T02:24:44.561Z,8.43
2018-07-28T02:27:11.955Z,8.57
2018-07-28T02:29:39.294Z,8.13
2018-07-28T02:32:06.572Z,8.23
2018-07-28T02:34:33.897Z,8.07
2018-07-28T02:37:01.168Z,8.17
2018-07-28T02:39:28.405Z,7.70
2018-07-28T02:41:55.700Z,7.83
2018-07-28T02:44:22.959Z,8.60
2018-07-28T02:46:51.227Z,8.23
2018-07-28T02:49:18.484Z,8.90
2018-07-28T02:51:45.775Z,8.03
2018-07-28T02:54:13.063Z,7.70
2018-07-28T02:56:40.332Z,8.47
2018-07-28T02:59:07.651Z,8.03
2018-07-28T03:01:34.951Z,8.40
2018-07-28T03:04:02.310Z,8.63
2018-07-28T03:06:29.577Z,7.73
2018-07-28T03:08:56.834Z,8.07
2018-07-28T03:11:24.119Z,8.63
2018-07-28T03:13:51.429Z,7.60
2018-07-28T03:16:19.908Z,9.17
2018-07-28T03:18:47.190Z,9.03
2018-07-28T03:21:14.494Z,8.20
2018-07-28T03:23:41.802Z,8.00
2018-07-28T03:26:09.147Z,8.20
2018-07-28T03:28:36.447Z,8.10
2018-07-28T03:31:03.789Z,8.07
2018-07-28T03:33:31.114Z,7.70
2018-07-28T03:35:58.396Z,8.10
2018-07-28T03:38:25.683Z,8.30
2018-07-28T03:40:54.944Z,8.80
2018-07-28T03:43:22.269Z,8.03
2018-07-28T03:45:49.621Z,8.13
2018-07-28T03:48:16.888Z,9.23
2018-07-28T03:50:44.276Z,9.43
2018-07-28T03:53:11.646Z,9.63
2018-07-28T03:55:38.937Z,9.73
2018-07-28T03:58:06.249Z,9.50
2018-07-28T04:00:33.565Z,8.87
2018-07-28T04:03:00.849Z,8.70
2018-07-28T04:05:28.140Z,8.83
2018-07-28T04:07:55.496Z,9.30
2018-07-28T04:10:22.833Z,8.73
2018-07-28T04:12:50.215Z,7.80
2018-07-28T04:15:17.681Z,9.13
2018-07-28T04:17:51.895Z,8.90
2018-07-28T04:20:19.413Z,10.07
2018-07-28T04:22:46.696Z,8.50
2018-07-28T04:25:13.993Z,8.83
2018-07-28T04:27:41.342Z,9.87
2018-07-28T04:30:14.849Z,9.43
2018-07-28T04:32:42.096Z,9.80
2018-07-28T04:35:09.375Z,9.10
2018-07-28T04:37:37.764Z,9.30
2018-07-28T04:40:05.980Z,9.20
2018-07-28T04:42:33.300Z,8.43
2018-07-28T04:45:01.740Z,8.77
2018-07-28T04:47:29.048Z,8.17
2018-07-28T04:49:56.330Z,9.10
2018-07-28T04:52:23.672Z,8.73
2018-07-28T04:54:50.957Z,9.50
2018-07-28T04:57:18.227Z,10.50
2018-07-28T04:59:46.500Z,9.83
2018-07-28T05:02:13.997Z,10.40
2018-07-28T05:04:41.231Z,9.40
2018-07-28T05:07:08.764Z,8.33
2018-07-28T05:09:36.017Z,7.60
2018-07-28T05:12:03.417Z,8.90
2018-07-28T05:14:30.705Z,8.27
2018-07-28T05:16:57.948Z,8.27
2018-07-28T05:19:25.411Z,8.30
2018-07-28T05:21:52.664Z,8.50
2018-07-28T05:24:20.066Z,8.40
2018-07-28T05:26:47.323Z,9.10
2018-07-28T05:29:14.613Z,8.37
2018-07-28T05:31:41.906Z,8.80
2018-07-28T05:34:09.210Z,8.67
2018-07-28T05:36:36.493Z,9.90
2018-07-28T05:39:07.690Z,9.33
2018-07-28T05:41:34.972Z,10.00
2018-07-28T05:44:02.269Z,9.00
2018-07-28T05:46:29.628Z,9.57
2018-07-28T05:48:56.968Z,8.90
2018-07-28T05:51:24.258Z,9.33
2018-07-28T05:53:51.609Z,9.67
2018-07-28T05:56:18.881Z,10.00
2018-07-28T05:58:46.192Z,9.80
2018-07-28T06:01:13.530Z,10.13
2018-07-28T06:03:40.842Z,10.17
2018-07-28T06:06:09.116Z,10.07
2018-07-28T06:08:36.423Z,9.63
2018-07-28T06:11:04.000Z,10.10
2018-07-28T06:13:31.357Z,10.53
2018-07-28T06:15:58.663Z,10.90
2018-07-28T06:18:25.925Z,12.00
2018-07-28T06:20:55.362Z,10.30
2018-07-28T06:23:22.741Z,10.77
2018-07-28T06:25:50.207Z,11.00
2018-07-28T06:28:17.546Z,10.80
2018-07-28T06:30:44.914Z,10.53
2018-07-28T06:33:12.209Z,11.60
2018-07-28T06:35:39.531Z,11.50
2018-07-28T06:38:06.946Z,10.03
2018-07-28T06:40:34.432Z,9.90
2018-07-28T06:43:01.785Z,10.53
2018-07-28T06:45:29.766Z,11.30
2018-07-28T06:47:57.414Z,9.90
2018-07-28T06:50:24.749Z,10.77
2018-07-28T06:52:52.062Z,9.53
2018-07-28T06:55:19.377Z,10.07
2018-07-28T06:57:46.697Z,10.07
2018-07-28T07:00:14.063Z,8.83
2018-07-28T07:02:41.530Z,10.00
2018-07-28T07:05:09.149Z,9.80
2018-07-28T07:07:36.484Z,10.00
2018-07-28T07:10:04.372Z,9.27
2018-07-28T07:12:31.669Z,8.90
2018-07-28T07:14:59.045Z,9.70
2018-07-28T07:17:26.466Z,8.63
2018-07-28T07:19:53.770Z,9.10
2018-07-28T07:22:23.036Z,9.10
2018-07-28T07:24:50.636Z,9.30
2018-07-28T07:27:18.142Z,9.07
2018-07-28T07:29:45.592Z,8.30
2018-07-28T07:32:12.937Z,8.60
2018-07-28T07:34:40.356Z,9.23
2018-07-28T07:37:07.765Z,8.43
2018-07-28T07:39:37.114Z,10.40
2018-07-28T07:42:04.405Z,9.90
2018-07-28T07:44:31.716Z,9.30
2018-07-28T07:46:59.091Z,9.27
2018-07-28T07:49:26.659Z,11.27
2018-07-28T07:51:54.065Z,8.00
2018-07-28T07:54:21.431Z,8.30
2018-07-28T07:56:49.474Z,9.10
2018-07-28T07:59:16.945Z,9.07
2018-07-28T08:01:44.224Z,9.20
2018-07-28T08:04:11.689Z,8.43
2018-07-28T08:06:38.982Z,8.60
2018-07-28T08:09:07.790Z,8.47
2018-07-28T08:11:35.214Z,8.00
2018-07-28T08:14:02.464Z,8.00
2018-07-28T08:16:29.746Z,8.17
2018-07-28T08:18:57.117Z,8.57
2018-07-28T08:21:24.602Z,7.93
2018-07-28T08:23:51.996Z,8.83
2018-07-28T08:26:19.505Z,8.77
2018-07-28T08:28:46.826Z,8.70
2018-07-28T08:31:14.133Z,8.30
2018-07-28T08:33:41.463Z,9.47
2018-07-28T08:36:08.849Z,10.70
2018-07-28T08:38:36.205Z,9.70
2018-07-28T08:41:03.617Z,8.90
2018-07-28T08:43:31.033Z,8.63
2018-07-28T08:45:58.312Z,9.20
2018-07-28T08:48:25.656Z,9.53
2018-07-28T08:50:52.944Z,9.40
2018-07-28T08:53:20.222Z,9.83
2018-07-28T08:55:47.593Z,8.93
2018-07-28T08:58:14.824Z,10.13
2018-07-28T09:00:42.159Z,8.80
2018-07-28T09:03:09.441Z,10.10
2018-07-28T09:05:36.700Z,9.90
2018-07-28T09:08:04.284Z,9.20
2018-07-28T09:10:31.607Z,10.03
2018-07-28T09:12:58.893Z,10.70
2018-07-28T09:15:26.259Z,8.83
2018-07-28T09:17:53.710Z,8.83
2018-07-28T09:20:20.980Z,9.10
2018-07-28T09:22:48.293Z,9.40
2018-07-28T09:25:16.220Z,9.20
2018-07-28T09:27:43.600Z,9.20
2018-07-28T09:30:10.946Z,8.33
2018-07-28T09:32:38.224Z,8.80
2018-07-28T09:35:05.554Z,9.10
2018-07-28T09:37:32.826Z,8.00
2018-07-28T09:40:00.082Z,8.30
2018-07-28T09:42:27.428Z,8.00
2018-07-28T09:44:55.017Z,8.47
2018-07-28T09:47:22.574Z,8.47
2018-07-28T09:49:49.885Z,8.30
2018-07-28T09:52:17.219Z,7.77
2018-07-28T09:54:44.513Z,8.17
2018-07-28T09:57:11.881Z,9.83
2018-07-28T09:59:39.233Z,8.77
2018-07-28T10:02:07.009Z,7.10
2018-07-28T10:04:34.325Z,7.53
2018-07-28T10:07:01.573Z,7.00
2018-07-28T10:09:28.910Z,7.47
2018-07-28T10:11:56.319Z,6.93
2018-07-28T10:14:23.801Z,7.17
2018-07-28T10:16:51.064Z,6.70
2018-07-28T10:19:19.450Z,8.23
2018-07-28T10:21:46.858Z,6.50
2018-07-28T10:24:14.442Z,6.20
2018-07-28T10:26:41.806Z,6.27
2018-07-28T10:29:09.276Z,6.40
2018-07-28T10:31:36.556Z,6.20
2018-07-28T10:34:04.913Z,6.53
2018-07-28T10:36:32.223Z,6.10
2018-07-28T10:38:59.436Z,5.30
2018-07-28T10:41:26.884Z,5.40
2018-07-28T10:43:54.139Z,5.77
2018-07-28T10:46:21.504Z,5.90
2018-07-28T10:48:50.591Z,5.77
2018-07-28T10:51:18.032Z,4.83
2018-07-28T10:53:45.392Z,4.20
2018-07-28T10:56:13.428Z,5.70
2018-07-28T10:58:43.652Z,5.10
2018-07-28T11:01:11.122Z,5.90
2018-07-28T11:03:38.601Z,6.03
2018-07-28T11:06:06.606Z,5.50
2018-07-28T11:08:33.925Z,6.10
2018-07-28T11:11:01.448Z,5.70
2018-07-28T11:13:28.828Z,5.40
2018-07-28T11:16:02.078Z,8.97
2018-07-28T11:18:29.550Z,13.03
2018-07-28T11:20:56.962Z,6.10
2018-07-28T11:23:35.664Z,6.13
2018-07-28T11:26:03.077Z,6.23
2018-07-28T11:28:30.421Z,6.80
2018-07-28T11:30:57.782Z,5.57
2018-07-28T11:33:37.299Z,10.40
2018-07-28T11:36:16.280Z,6.73
2018-07-28T11:38:55.034Z,6.77
2018-07-28T11:41:33.929Z,6.67
2018-07-28T11:44:12.749Z,6.80
2018-07-28T11:46:40.134Z,5.60
2018-07-28T11:49:07.582Z,5.70
2018-07-28T11:51:35.029Z,6.27
2018-07-28T11:54:02.409Z,5.00
2018-07-28T11:56:30.908Z,12.20
2018-07-28T11:58:58.368Z,5.30
2018-07-28T12:01:25.708Z,5.70
2018-07-28T12:03:53.343Z,8.70
2018-07-28T12:06:20.771Z,5.50
2018-07-28T12:08:48.137Z,6.77
2018-07-28T12:11:16.467Z,11.40
2018-07-28T12:13:43.901Z,6.27
2018-07-28T12:16:12.414Z,6.50
2018-07-28T12:18:39.855Z,11.13
2018-07-28T12:21:07.199Z,6.00
2018-07-28T12:23:36.617Z,5.23
2018-07-28T12:26:03.985Z,6.50
2018-07-28T12:28:34.597Z,6.33
2018-07-28T12:31:01.979Z,5.33
2018-07-28T12:33:29.436Z,4.80
2018-07-28T12:35:57.084Z,5.33
2018-07-28T12:38:24.453Z,5.70
2018-07-28T12:40:52.899Z,5.40
2018-07-28T12:43:20.291Z,5.93
2018-07-28T12:45:47.572Z,5.73
2018-07-28T12:48:14.819Z,5.90
2018-07-28T12:50:43.344Z,5.60
2018-07-28T12:53:10.683Z,5.57
2018-07-28T12:55:38.065Z,6.80
2018-07-28T12:58:05.296Z,5.60
2018-07-28T13:00:32.569Z,5.63
2018-07-28T13:02:59.816Z,5.53
2018-07-28T13:05:27.558Z,4.90
2018-07-28T13:07:55.026Z,13.90
2018-07-28T13:10:22.404Z,12.40
2018-07-28T13:12:49.661Z,8.93
2018-07-28T13:15:16.926Z,6.90
2018-07-28T13:17:44.485Z,6.93
2018-07-28T13:20:12.512Z,8.17
2018-07-28T13:22:39.928Z,5.30
2018-07-28T13:25:07.264Z,6.90
2018-07-28T13:27:34.526Z,5.90
2018-07-28T13:30:01.809Z,5.27
2018-07-28T13:32:29.070Z,5.70
2018-07-28T13:34:56.348Z,5.23
2018-07-28T13:37:23.625Z,4.87
2018-07-28T13:39:50.987Z,5.30
2018-07-28T13:42:18.312Z,4.70
2018-07-28T13:44:45.788Z,5.20
2018-07-28T13:47:13.083Z,3.87
2018-07-28T13:49:40.468Z,4.13
2018-07-28T13:52:07.789Z,3.60
2018-07-28T13:54:35.106Z,4.23
2018-07-28T13:57:02.409Z,4.50
2018-07-28T13:59:29.664Z,5.27
2018-07-28T14:01:57.189Z,5.50
2018-07-28T14:04:24.496Z,4.93
2018-07-28T14:06:51.773Z,4.47
2018-07-28T14:09:19.117Z,4.60
2018-07-28T14:11:46.470Z,4.80
2018-07-28T14:14:13.957Z,4.70
2018-07-28T14:16:41.365Z,4.00
2018-07-28T14:19:08.652Z,4.43
2018-07-28T14:21:36.007Z,4.27
2018-07-28T14:24:03.277Z,6.00
2018-07-28T14:26:30.708Z,5.00
2018-07-28T14:28:58.226Z,5.47
2018-07-28T14:31:25.637Z,4.33
2018-07-28T14:33:53.034Z,4.67
2018-07-28T14:36:20.517Z,5.40
2018-07-28T14:38:47.905Z,4.90
2018-07-28T14:41:15.188Z,4.47
2018-07-28T14:43:42.504Z,4.87
2018-07-28T14:46:10.198Z,5.43
2018-07-28T14:48:37.457Z,4.77
2018-07-28T14:51:04.815Z,4.97
2018-07-28T14:53:32.160Z,4.27
2018-07-28T14:55:59.529Z,5.50
2018-07-28T14:58:26.924Z,5.57
2018-07-28T15:00:54.167Z,5.93
2018-07-28T15:03:21.718Z,6.17
2018-07-28T15:05:49.060Z,7.20
2018-07-28T15:08:16.297Z,6.87
2018-07-28T15:10:43.681Z,7.23
2018-07-28T15:13:11.028Z,6.53
2018-07-28T15:15:38.433Z,8.77
2018-07-28T15:18:05.789Z,8.20
2018-07-28T15:20:33.149Z,8.53
2018-07-28T15:23:00.458Z,8.43
2018-07-28T15:25:27.818Z,9.50
2018-07-28T15:27:55.076Z,9.87
2018-07-28T15:30:22.653Z,8.00
2018-07-28T15:32:49.992Z,8.27
2018-07-28T15:35:17.288Z,6.60
2018-07-28T15:37:44.588Z,7.13
2018-07-28T15:40:11.837Z,7.00
2018-07-28T15:42:39.092Z,5.97
2018-07-28T15:45:06.588Z,6.33
2018-07-28T15:47:34.183Z,6.90
2018-07-28T15:50:01.429Z,6.97
2018-07-28T15:52:28.797Z,6.57
2018-07-28T15:54:56.097Z,6.37
2018-07-28T15:57:23.356Z,6.43
2018-07-28T15:59:50.653Z,7.03
2018-07-28T16:02:18.057Z,6.83
2018-07-28T16:04:45.344Z,6.60
2018-07-28T16:07:12.648Z,8.07
2018-07-28T16:09:39.960Z,6.30
2018-07-28T16:12:08.098Z,6.73
2018-07-28T16:14:35.418Z,6.70
2018-07-28T16:17:02.848Z,7.83
2018-07-28T16:19:30.160Z,7.30
2018-07-28T16:21:57.453Z,7.23
2018-07-28T16:24:25.223Z,6.80
2018-07-28T16:26:52.566Z,7.97
2018-07-28T16:29:19.853Z,7.80
2018-07-28T16:31:47.179Z,6.90
2018-07-28T16:34:14.513Z,7.17
2018-07-28T16:36:41.817Z,7.00
2018-07-28T16:39:10.125Z,7.40
2018-07-28T16:41:37.768Z,6.80
2018-07-28T16:44:05.130Z,8.00
2018-07-28T16:46:32.486Z,7.87
2018-07-28T16:48:59.897Z,7.83
2018-07-28T16:51:27.276Z,7.50
2018-07-28T16:53:54.545Z,7.70
2018-07-28T16:56:22.112Z,8.37
2018-07-28T16:58:50.096Z,8.40
2018-07-28T17:01:19.573Z,7.80
2018-07-28T17:03:46.967Z,7.97
2018-07-28T17:06:14.288Z,7.93
2018-07-28T17:08:41.760Z,7.80
2018-07-28T17:11:09.007Z,8.10
2018-07-28T17:13:36.354Z,8.00
2018-07-28T17:16:03.869Z,7.53
2018-07-28T17:18:31.136Z,7.40
2018-07-28T17:20:58.416Z,8.37
2018-07-28T17:23:26.314Z,7.40
2018-07-28T17:25:53.623Z,7.90
2018-07-28T17:28:20.989Z,8.43
2018-07-28T17:30:48.342Z,7.77
2018-07-28T17:33:15.580Z,7.07
2018-07-28T17:35:42.882Z,7.17
2018-07-28T17:38:10.128Z,7.23
2018-07-28T17:40:38.289Z,7.67
2018-07-28T17:43:05.599Z,7.37
2018-07-28T17:45:32.900Z,8.00
2018-07-28T17:48:00.257Z,8.40
2018-07-28T17:50:27.593Z,8.13
2018-07-28T17:52:55.022Z,7.73
2018-07-28T17:55:22.466Z,8.10
2018-07-28T17:57:50.932Z,7.23
2018-07-28T18:00:18.401Z,7.60
2018-07-28T18:02:45.717Z,7.33
2018-07-28T18:05:13.060Z,7.03
2018-07-28T18:07:40.357Z,7.77
2018-07-28T18:10:07.595Z,7.00
2018-07-28T18:12:35.138Z,7.37
2018-07-28T18:15:02.401Z,7.67
2018-07-28T18:17:29.788Z,7.93
2018-07-28T18:19:57.060Z,7.60
2018-07-28T18:22:24.317Z,7.60
2018-07-28T18:24:51.623Z,8.10
2018-07-28T18:27:18.880Z,7.80
2018-07-28T18:29:46.156Z,8.17
2018-07-28T18:32:13.441Z,8.17
2018-07-28T18:34:42.106Z,8.33
2018-07-28T18:37:09.512Z,7.80
2018-07-28T18:39:38.028Z,9.37
2018-07-28T18:42:05.470Z,8.00
2018-07-28T18:44:32.774Z,9.00
2018-07-28T18:47:00.025Z,8.87
2018-07-28T18:49:27.304Z,8.67
2018-07-28T18:51:54.576Z,8.13
2018-07-28T18:54:21.812Z,8.33
2018-07-28T18:56:50.268Z,7.70
2018-07-28T18:59:17.617Z,7.40
2018-07-28T19:01:44.975Z,8.93
2018-07-28T19:04:12.387Z,7.53
2018-07-28T19:06:39.689Z,8.47
2018-07-28T19:09:13.046Z,7.97
2018-07-28T19:11:40.593Z,7.90
2018-07-28T19:14:13.504Z,8.93
2018-07-28T19:16:40.831Z,8.70
2018-07-28T19:19:14.538Z,7.50
2018-07-28T19:21:42.309Z,8.90
2018-07-28T19:24:09.549Z,8.67
2018-07-28T19:26:36.815Z,8.23
2018-07-28T19:29:09.876Z,8.30
2018-07-28T19:31:37.142Z,8.43
2018-07-28T19:34:04.536Z,7.87
2018-07-28T19:36:37.425Z,9.33
2018-07-28T19:39:05.921Z,8.47
2018-07-28T19:41:38.867Z,7.77
2018-07-28T19:44:06.172Z,9.07
2018-07-28T19:46:34.548Z,9.17
2018-07-28T19:49:01.833Z,8.77
2018-07-28T19:51:29.244Z,8.13
2018-07-28T19:53:56.560Z,8.60
2018-07-28T19:56:24.564Z,8.93
2018-07-28T19:58:51.892Z,8.30
2018-07-28T20:01:19.185Z,7.60
2018-07-28T20:03:46.671Z,7.83
2018-07-28T20:06:13.973Z,8.60
2018-07-28T20:08:41.269Z,8.37
2018-07-28T20:11:09.376Z,8.50
2018-07-28T20:13:36.764Z,8.90
2018-07-28T20:16:04.016Z,8.87
2018-07-28T20:18:31.345Z,8.37
2018-07-28T20:20:58.691Z,9.70
2018-07-28T20:23:25.976Z,8.63
2018-07-28T20:25:53.266Z,8.67
2018-07-28T20:28:20.637Z,9.10
2018-07-28T20:30:48.008Z,9.07
2018-07-28T20:33:15.255Z,8.23
2018-07-28T20:35:42.632Z,7.87
2018-07-28T20:38:09.981Z,8.43
2018-07-28T20:40:37.460Z,9.13
2018-07-28T20:43:04.889Z,9.70
2018-07-28T20:45:32.169Z,8.60
2018-07-28T20:47:59.464Z,8.07
2018-07-28T20:50:26.742Z,8.40
2018-07-28T20:52:54.060Z,9.20
2018-07-28T20:55:21.316Z,9.03
2018-07-28T20:57:48.554Z,7.87
2018-07-28T21:00:15.880Z,8.70
2018-07-28T21:02:43.230Z,8.10
2018-07-28T21:05:10.578Z,8.80
2018-07-28T21:07:37.921Z,9.40
2018-07-28T21:10:05.337Z,9.57
2018-07-28T21:12:32.573Z,8.90
2018-07-28T21:15:01.157Z,9.33
2018-07-28T21:17:28.341Z,8.80
2018-07-28T21:19:55.584Z,8.60
2018-07-28T21:22:22.829Z,9.10
2018-07-28T21:24:50.254Z,9.03
2018-07-28T21:27:17.548Z,8.40
2018-07-28T21:29:44.838Z,8.33
2018-07-28T21:32:12.076Z,8.70
2018-07-28T21:34:39.473Z,8.50
2018-07-28T21:37:06.860Z,9.13
2018-07-28T21:39:34.208Z,9.40
2018-07-28T21:42:02.053Z,8.80
2018-07-28T21:44:29.332Z,8.70
2018-07-28T21:46:56.581Z,8.77
2018-07-28T21:49:23.901Z,8.77
2018-07-28T21:51:51.235Z,8.93
2018-07-28T21:54:18.674Z,8.70
2018-07-28T21:56:46.073Z,9.30
2018-07-28T21:59:13.320Z,9.13
2018-07-28T22:01:42.917Z,9.10
2018-07-28T22:04:16.182Z,8.67
2018-07-28T22:06:43.630Z,8.37
2018-07-28T22:09:10.872Z,8.47
2018-07-28T22:11:38.196Z,8.10
2018-07-28T22:14:05.586Z,8.60
2018-07-28T22:16:33.045Z,8.43
2018-07-28T22:19:00.597Z,8.17
2018-07-28T22:21:27.900Z,8.73
2018-07-28T22:23:55.245Z,8.73
2018-07-28T22:26:22.489Z,8.53
2018-07-28T22:28:49.851Z,8.13
2018-07-28T22:31:17.117Z,9.37
2018-07-28T22:33:44.364Z,8.60
2018-07-28T22:36:11.694Z,8.27
2018-07-28T22:38:38.944Z,7.27
2018-07-28T22:41:06.396Z,8.50
2018-07-28T22:43:33.648Z,7.50
2018-07-28T22:46:00.910Z,8.10
2018-07-28T22:48:28.188Z,7.40
2018-07-28T22:50:55.468Z,8.53
2018-07-28T22:53:22.741Z,8.37
2018-07-28T22:55:49.988Z,7.63
2018-07-28T22:58:17.259Z,7.47
2018-07-28T23:00:44.598Z,8.37
2018-07-28T23:03:11.973Z,8.70
2018-07-28T23:05:39.257Z,8.67
2018-07-28T23:08:06.540Z,8.07
2018-07-28T23:10:33.808Z,8.10
2018-07-28T23:13:01.091Z,8.63
2018-07-28T23:15:28.390Z,7.17
2018-07-28T23:17:55.680Z,7.70
2018-07-28T23:20:23.116Z,7.87
2018-07-28T23:22:50.434Z,8.23
2018-07-28T23:25:17.700Z,7.87
2018-07-28T23:27:44.970Z,7.33
2018-07-28T23:30:12.256Z,8.20
2018-07-28T23:32:39.628Z,8.67
2018-07-28T23:35:07.173Z,8.67
2018-07-28T23:37:34.533Z,7.90
2018-07-28T23:40:01.929Z,7.80
2018-07-28T23:42:29.202Z,9.00
2018-07-28T23:44:56.547Z,8.10
2018-07-28T23:47:23.977Z,7.67
2018-07-28T23:49:51.228Z,7.90
2018-07-28T23:52:18.494Z,7.47
2018-07-28T23:54:45.839Z,8.17
2018-07-28T23:57:13.180Z,7.90
2018-07-28T23:59:40.523Z,8.07
